createdAt,value
2018-11-23T00:00:21.875Z,51.93
2018-11-23T00:02:50.922Z,53.23
2018-11-23T00:05:19.801Z,47.30
2018-11-23T00:07:48.839Z,48.23
2018-11-23T00:10:19.744Z,52.37
2018-11-23T00:12:48.768Z,46.27
2018-11-23T00:15:18.450Z,50.30
2018-11-23T00:17:46.990Z,46.80
2018-11-23T00:20:16.881Z,50.50
2018-11-23T00:22:45.370Z,51.77
2018-11-23T00:25:15.127Z,52.17
2018-11-23T00:27:43.658Z,50.33
2018-11-23T00:30:16.407Z,52.20
2018-11-23T00:32:45.634Z,53.37
2018-11-23T00:35:16.111Z,54.73
2018-11-23T00:37:45.166Z,53.63
2018-11-23T00:40:18.421Z,49.93
2018-11-23T00:42:46.940Z,45.30
2018-11-23T00:45:15.559Z,46.02
2018-11-23T00:47:45.064Z,53.33
2018-11-23T00:50:14.975Z,56.00
2018-11-23T00:52:44.100Z,48.20
2018-11-23T00:55:14.313Z,46.33
2018-11-23T00:57:43.655Z,47.73
2018-11-23T01:00:16.511Z,58.63
2018-11-23T01:02:45.298Z,51.90
2018-11-23T01:05:15.369Z,49.87
2018-11-23T01:07:44.390Z,47.90
2018-11-23T01:10:14.384Z,47.00
2018-11-23T01:12:43.821Z,54.67
2018-11-23T01:15:12.521Z,51.13
2018-11-23T01:17:41.083Z,54.10
2018-11-23T01:20:12.743Z,50.70
2018-11-23T01:22:41.662Z,47.00
2018-11-23T01:25:11.776Z,53.43
2018-11-23T01:27:42.025Z,49.07
2018-11-23T01:30:14.109Z,58.73
2018-11-23T01:32:42.634Z,54.87
2018-11-23T01:35:11.257Z,53.90
2018-11-23T01:37:39.799Z,45.60
2018-11-23T01:40:10.260Z,48.30
2018-11-23T01:42:38.804Z,50.90
2018-11-23T01:45:09.293Z,56.42
2018-11-23T01:47:38.772Z,53.97
2018-11-23T01:50:13.438Z,51.67
2018-11-23T01:52:42.055Z,50.93
2018-11-23T01:55:11.852Z,55.17
2018-11-23T01:57:41.191Z,51.43
2018-11-23T02:00:13.195Z,50.63
2018-11-23T02:02:41.714Z,52.33
2018-11-23T02:05:10.846Z,49.90
2018-11-23T02:07:39.863Z,53.50
2018-11-23T02:10:09.575Z,52.07
2018-11-23T02:12:38.106Z,56.90
2018-11-23T02:15:10.618Z,47.87
2018-11-23T02:17:39.193Z,53.10
2018-11-23T02:20:11.188Z,53.73
2018-11-23T02:22:39.738Z,50.73
2018-11-23T02:25:08.731Z,50.75
2018-11-23T02:27:37.406Z,48.97
2018-11-23T02:30:12.019Z,55.70
2018-11-23T02:32:41.047Z,53.17
2018-11-23T02:35:09.602Z,46.57
2018-11-23T02:37:38.196Z,53.63
2018-11-23T02:40:07.616Z,51.17
2018-11-23T02:42:36.419Z,51.57
2018-11-23T02:45:05.732Z,57.87
2018-11-23T02:47:34.223Z,63.70
2018-11-23T02:50:02.679Z,57.40
2018-11-23T02:52:31.208Z,58.13
2018-11-23T02:54:59.719Z,49.90
2018-11-23T02:57:28.286Z,50.90
2018-11-23T02:59:56.750Z,51.70
2018-11-23T03:02:25.290Z,64.00
2018-11-23T03:04:53.832Z,53.47
2018-11-23T03:07:22.572Z,64.47
2018-11-23T03:09:51.140Z,49.93
2018-11-23T03:12:19.691Z,60.33
2018-11-23T03:14:48.243Z,63.97
2018-11-23T03:17:17.387Z,62.87
2018-11-23T03:19:45.887Z,52.30
2018-11-23T03:22:14.414Z,58.17
2018-11-23T03:24:42.911Z,59.77
2018-11-23T03:27:11.400Z,51.27
2018-11-23T03:29:39.929Z,65.20
2018-11-23T03:32:08.395Z,55.53
2018-11-23T03:34:36.928Z,54.17
2018-11-23T03:37:05.505Z,60.67
2018-11-23T03:39:34.292Z,51.87
2018-11-23T03:42:03.214Z,59.10
2018-11-23T03:44:31.710Z,62.13
2018-11-23T03:47:00.266Z,63.40
2018-11-23T03:49:28.786Z,60.07
2018-11-23T03:51:57.328Z,62.48
2018-11-23T03:54:25.832Z,53.50
2018-11-23T03:56:54.354Z,51.00
2018-11-23T03:59:22.900Z,58.10
2018-11-23T04:01:51.415Z,58.93
2018-11-23T04:04:19.918Z,66.57
2018-11-23T04:06:48.607Z,57.07
2018-11-23T04:09:17.770Z,63.17
2018-11-23T04:11:46.286Z,57.70
2018-11-23T04:14:14.845Z,65.07
2018-11-23T04:16:43.343Z,56.30
2018-11-23T04:19:11.829Z,55.73
2018-11-23T04:21:40.390Z,59.13
2018-11-23T04:24:08.922Z,61.20
2018-11-23T04:26:37.420Z,66.63
2018-11-23T04:29:06.374Z,56.53
2018-11-23T04:31:34.957Z,60.47
2018-11-23T04:34:03.446Z,55.50
2018-11-23T04:36:32.003Z,65.07
2018-11-23T04:39:00.507Z,55.87
2018-11-23T04:41:29.015Z,69.43
2018-11-23T04:43:57.546Z,62.80
2018-11-23T04:46:26.195Z,61.97
2018-11-23T04:48:54.697Z,61.60
2018-11-23T04:51:23.180Z,66.05
2018-11-23T04:53:51.670Z,66.33
2018-11-23T04:56:20.211Z,70.43
2018-11-23T04:58:48.715Z,58.93
2018-11-23T05:01:17.321Z,73.50
2018-11-23T05:03:45.879Z,61.20
2018-11-23T05:06:14.455Z,65.17
2018-11-23T05:08:42.951Z,65.40
2018-11-23T05:11:11.523Z,65.40
2018-11-23T05:13:40.106Z,70.50
2018-11-23T05:16:08.622Z,73.23
2018-11-23T05:18:37.133Z,64.37
2018-11-23T05:21:05.827Z,58.00
2018-11-23T05:23:34.343Z,67.93
2018-11-23T05:26:02.855Z,71.13
2018-11-23T05:28:31.405Z,72.30
2018-11-23T05:30:59.959Z,80.13
2018-11-23T05:33:28.502Z,71.67
2018-11-23T05:35:57.061Z,60.70
2018-11-23T05:38:25.550Z,67.77
2018-11-23T05:40:55.078Z,63.20
2018-11-23T05:43:24.219Z,64.87
2018-11-23T05:45:53.878Z,58.43
2018-11-23T05:48:26.971Z,61.60
2018-11-23T05:50:52.305Z,60.70
2018-11-23T05:53:20.870Z,77.20
2018-11-23T05:55:49.355Z,70.43
2018-11-23T05:58:17.854Z,71.73
2018-11-23T06:00:46.526Z,72.10
2018-11-23T06:03:15.025Z,63.00
2018-11-23T06:05:43.548Z,75.25
2018-11-23T06:08:12.055Z,70.30
2018-11-23T06:10:40.757Z,76.10
2018-11-23T06:13:10.138Z,72.70
2018-11-23T06:15:44.409Z,86.87
2018-11-23T06:18:07.323Z,72.40
2018-11-23T06:20:35.872Z,74.63
2018-11-23T06:23:04.586Z,71.70
2018-11-23T06:25:35.930Z,83.80
2018-11-23T06:28:04.878Z,77.30
2018-11-23T06:30:33.399Z,71.57
2018-11-23T06:33:13.537Z,78.23
2018-11-23T06:35:42.222Z,74.63
2018-11-23T06:38:10.682Z,91.97
2018-11-23T06:40:39.231Z,86.80
2018-11-23T06:43:07.727Z,82.77
2018-11-23T06:45:38.250Z,81.33
2018-11-23T06:48:07.591Z,93.10
2018-11-23T06:50:36.736Z,88.65
2018-11-23T06:53:05.643Z,88.60
2018-11-23T06:55:34.163Z,95.33
2018-11-23T06:58:02.774Z,87.67
2018-11-23T07:00:31.358Z,98.17
2018-11-23T07:02:59.862Z,98.43
2018-11-23T07:05:28.405Z,94.93
2018-11-23T07:07:56.935Z,104.40
2018-11-23T07:10:25.541Z,91.83
2018-11-23T07:12:54.054Z,99.77
2018-11-23T07:15:22.583Z,112.03
2018-11-23T07:17:51.138Z,117.53
2018-11-23T07:20:19.643Z,111.80
2018-11-23T07:22:48.724Z,101.70
2018-11-23T07:25:17.238Z,113.10
2018-11-23T07:27:45.794Z,99.43
2018-11-23T07:30:16.800Z,104.20
2018-11-23T07:32:45.558Z,108.47
2018-11-23T07:35:15.156Z,120.47
2018-11-23T07:37:43.668Z,101.67
2018-11-23T07:40:24.951Z,106.97
2018-11-23T07:42:54.147Z,122.13
2018-11-23T07:45:22.659Z,114.80
2018-11-23T07:47:51.190Z,120.93
2018-11-23T07:50:19.694Z,113.13
2018-11-23T07:52:48.411Z,117.67
2018-11-23T07:55:16.952Z,136.30
2018-11-23T07:57:46.026Z,110.57
2018-11-23T08:00:18.035Z,115.13
2018-11-23T08:02:47.355Z,95.27
2018-11-23T08:05:16.954Z,84.00
2018-11-23T08:07:46.273Z,101.20
2018-11-23T08:10:14.862Z,92.80
2018-11-23T08:12:44.675Z,97.00
2018-11-23T08:15:18.769Z,102.72
2018-11-23T08:17:47.334Z,89.43
2018-11-23T08:20:17.356Z,92.67
2018-11-23T08:22:46.076Z,87.57
2018-11-23T08:25:15.843Z,89.77
2018-11-23T08:27:45.251Z,98.17
2018-11-23T08:30:16.963Z,94.00
2018-11-23T08:32:45.646Z,91.33
2018-11-23T08:35:14.518Z,101.03
2018-11-23T08:37:43.107Z,82.43
2018-11-23T08:40:13.891Z,86.93
2018-11-23T08:42:43.084Z,86.17
2018-11-23T08:45:14.167Z,70.90
2018-11-23T08:47:42.697Z,93.13
2018-11-23T08:50:15.928Z,81.67
2018-11-23T08:52:45.443Z,71.93
2018-11-23T08:55:14.843Z,85.87
2018-11-23T08:57:43.523Z,90.13
2018-11-23T09:00:16.428Z,85.53
2018-11-23T09:02:46.070Z,93.63
2018-11-23T09:05:15.127Z,88.97
2018-11-23T09:07:44.578Z,90.50
2018-11-23T09:10:15.504Z,82.97
2018-11-23T09:12:45.250Z,74.70
2018-11-23T09:15:14.643Z,80.53
2018-11-23T09:17:44.281Z,72.50
2018-11-23T09:20:13.471Z,81.20
2018-11-23T09:22:42.069Z,94.17
2018-11-23T09:25:19.937Z,80.57
2018-11-23T09:27:48.438Z,84.20
2018-11-23T09:30:20.174Z,104.27
2018-11-23T09:32:49.518Z,89.67
2018-11-23T09:35:18.024Z,105.60
2018-11-23T09:37:47.012Z,124.40
2018-11-23T09:40:20.005Z,101.20
2018-11-23T09:42:48.820Z,133.00
2018-11-23T09:45:20.071Z,95.03
2018-11-23T09:47:49.646Z,85.07
2018-11-23T09:50:20.328Z,81.97
2018-11-23T09:52:50.189Z,80.37
2018-11-23T09:55:19.398Z,80.57
2018-11-23T09:57:47.934Z,81.07
2018-11-23T10:00:20.942Z,78.60
2018-11-23T10:02:50.335Z,80.83
2018-11-23T10:05:19.780Z,67.23
2018-11-23T10:07:50.703Z,76.57
2018-11-23T10:10:20.098Z,72.65
2018-11-23T10:12:48.809Z,65.50
2018-11-23T10:15:18.234Z,68.40
2018-11-23T10:17:46.720Z,61.30
2018-11-23T10:20:24.644Z,79.17
2018-11-23T10:22:53.293Z,66.60
2018-11-23T10:25:23.297Z,66.40
2018-11-23T10:27:51.849Z,73.97
2018-11-23T10:30:22.722Z,69.73
2018-11-23T10:32:52.426Z,69.30
2018-11-23T10:35:20.940Z,56.23
2018-11-23T10:37:51.107Z,67.20
2018-11-23T10:40:22.656Z,52.73
2018-11-23T10:42:51.214Z,59.10
2018-11-23T10:45:22.065Z,62.00
2018-11-23T10:47:51.391Z,60.30
2018-11-23T10:50:22.283Z,57.30
2018-11-23T10:52:51.608Z,62.20
2018-11-23T10:55:21.842Z,63.23
2018-11-23T10:57:50.524Z,60.07
2018-11-23T11:00:25.016Z,104.77
2018-11-23T11:02:59.844Z,75.67
2018-11-23T11:05:33.743Z,61.07
2018-11-23T11:08:03.086Z,56.60
2018-11-23T11:10:31.652Z,56.07
2018-11-23T11:13:00.272Z,45.70
2018-11-23T11:15:28.778Z,56.27
2018-11-23T11:17:57.315Z,54.00
2018-11-23T11:20:25.867Z,48.33
2018-11-23T11:22:54.411Z,59.70
2018-11-23T11:25:22.996Z,65.50
2018-11-23T11:27:51.848Z,51.50
2018-11-23T11:30:20.829Z,52.67
2018-11-23T11:32:49.793Z,54.20
2018-11-23T11:35:18.339Z,60.40
2018-11-23T11:37:46.993Z,56.37
2018-11-23T11:40:16.990Z,56.10
2018-11-23T11:42:45.741Z,56.13
2018-11-23T11:45:15.580Z,54.67
2018-11-23T11:47:44.705Z,52.63
2018-11-23T11:50:14.346Z,49.05
2018-11-23T11:52:44.089Z,55.70
2018-11-23T11:55:14.752Z,57.87
2018-11-23T11:57:43.918Z,46.97
2018-11-23T12:00:15.564Z,55.80
2018-11-23T12:02:44.077Z,54.80
2018-11-23T12:05:13.461Z,52.10
2018-11-23T12:07:42.605Z,66.53
2018-11-23T12:10:14.655Z,62.33
2018-11-23T12:12:43.182Z,61.73
2018-11-23T12:15:12.406Z,69.77
2018-11-23T12:17:41.274Z,57.03
2018-11-23T12:20:12.577Z,49.47
2018-11-23T12:22:41.492Z,57.70
2018-11-23T12:25:10.160Z,44.67
2018-11-23T12:27:38.695Z,54.20
2018-11-23T12:30:11.183Z,48.83
2018-11-23T12:32:40.135Z,64.77
2018-11-23T12:35:10.015Z,51.53
2018-11-23T12:37:38.728Z,55.30
2018-11-23T12:40:10.107Z,55.05
2018-11-23T12:42:38.673Z,53.07
2018-11-23T12:45:10.161Z,54.15
2018-11-23T12:47:39.593Z,55.73
2018-11-23T12:50:12.235Z,42.57
2018-11-23T12:52:40.980Z,58.83
2018-11-23T12:55:10.270Z,54.17
2018-11-23T12:57:39.195Z,69.03
2018-11-23T13:00:16.626Z,51.98
2018-11-23T13:02:46.035Z,54.57
2018-11-23T13:05:14.566Z,55.37
2018-11-23T13:07:43.204Z,59.33
2018-11-23T13:10:11.782Z,54.63
2018-11-23T13:12:40.509Z,49.77
2018-11-23T13:15:09.038Z,59.50
2018-11-23T13:17:37.686Z,63.50
2018-11-23T13:20:08.841Z,45.27
2018-11-23T13:22:37.502Z,63.03
2018-11-23T13:25:08.829Z,62.80
2018-11-23T13:27:37.929Z,56.57
2018-11-23T13:30:13.547Z,63.70
2018-11-23T13:32:42.906Z,62.73
2018-11-23T13:35:13.160Z,61.60
2018-11-23T13:37:41.966Z,64.23
2018-11-23T13:40:13.528Z,59.10
2018-11-23T13:42:42.258Z,62.70
2018-11-23T13:45:12.854Z,60.33
2018-11-23T13:47:41.722Z,64.20
2018-11-23T13:50:12.348Z,62.70
2018-11-23T13:52:41.424Z,64.30
2018-11-23T13:55:09.995Z,46.63
2018-11-23T13:57:38.613Z,64.67
2018-11-23T14:05:11.658Z,58.70
2018-11-23T14:07:40.461Z,64.53
2018-11-23T14:10:11.155Z,65.97
2018-11-23T14:12:39.678Z,69.40
2018-11-23T14:15:11.155Z,68.00
2018-11-23T14:17:40.583Z,58.13
2018-11-23T14:20:10.930Z,68.13
2018-11-23T14:22:39.508Z,58.90
2018-11-23T14:25:10.302Z,70.40
2018-11-23T14:27:38.818Z,63.87
2018-11-23T14:30:13.395Z,67.20
2018-11-23T14:32:42.099Z,59.60
2018-11-23T14:35:12.690Z,68.47
2018-11-23T14:37:41.835Z,66.13
2018-11-23T14:40:11.522Z,75.50
2018-11-23T14:42:41.180Z,82.13
2018-11-23T14:45:12.936Z,75.73
2018-11-23T14:47:42.079Z,61.33
2018-11-23T14:50:13.688Z,72.87
2018-11-23T14:52:43.233Z,72.57
2018-11-23T14:55:11.778Z,66.17
2018-11-23T14:57:41.331Z,84.50
2018-11-23T15:00:14.155Z,87.37
2018-11-23T15:02:43.322Z,96.37
2018-11-23T15:05:11.827Z,70.37
2018-11-23T15:07:40.509Z,57.73
2018-11-23T15:10:12.251Z,94.03
2018-11-23T15:12:40.831Z,78.67
2018-11-23T15:15:13.626Z,69.90
2018-11-23T15:17:42.772Z,74.07
2018-11-23T15:20:16.219Z,88.77
2018-11-23T15:25:19.117Z,84.57
2018-11-23T15:27:47.611Z,77.80
2018-11-23T15:30:20.023Z,78.07
2018-11-23T15:32:48.713Z,72.20
2018-11-23T15:35:17.722Z,95.70
2018-11-23T15:37:46.328Z,85.90
2018-11-23T15:40:17.560Z,75.10
2018-11-23T15:42:46.959Z,67.80
2018-11-23T15:45:17.064Z,83.97
2018-11-23T15:47:45.650Z,77.30
2018-11-23T15:50:18.483Z,79.67
2018-11-23T15:52:47.498Z,70.23
2018-11-23T15:55:18.870Z,73.70
2018-11-23T15:57:48.269Z,63.67
2018-11-23T16:00:22.352Z,52.77
2018-11-23T16:02:51.221Z,60.50
2018-11-23T16:05:19.876Z,54.13
2018-11-23T16:07:48.938Z,52.07
2018-11-23T16:10:21.956Z,52.47
2018-11-23T16:12:58.403Z,69.87
2018-11-23T16:15:27.525Z,68.03
2018-11-23T16:17:56.711Z,54.60
2018-11-23T16:20:28.793Z,68.93
2018-11-23T16:22:59.830Z,60.47
2018-11-23T16:25:28.354Z,67.03
2018-11-23T16:27:58.370Z,68.47
2018-11-23T16:30:29.178Z,66.10
2018-11-23T16:32:58.930Z,70.97
2018-11-23T16:35:28.997Z,69.93
2018-11-23T16:37:58.730Z,59.10
2018-11-23T16:40:29.073Z,40.73
2018-11-23T16:42:59.095Z,45.17
2018-11-23T16:45:29.075Z,69.37
2018-11-23T16:47:58.735Z,61.27
2018-11-23T16:50:27.707Z,67.83
2018-11-23T16:52:56.779Z,63.07
2018-11-23T16:55:25.627Z,69.00
2018-11-23T16:57:57.540Z,71.47
2018-11-23T17:00:41.986Z,80.10
2018-11-23T17:03:12.647Z,69.67
2018-11-23T17:05:42.709Z,83.27
2018-11-23T17:08:11.641Z,75.03
2018-11-23T17:10:40.380Z,69.53
2018-11-23T17:13:08.939Z,56.53
2018-11-23T17:15:37.426Z,73.00
2018-11-23T17:18:06.882Z,69.93
2018-11-23T17:20:35.827Z,73.02
2018-11-23T17:23:07.085Z,71.23
2018-11-23T17:25:35.783Z,82.83
2018-11-23T17:28:05.785Z,76.10
2018-11-23T17:30:35.174Z,73.20
2018-11-23T17:33:03.903Z,72.43
2018-11-23T17:35:32.437Z,88.03
2018-11-23T17:38:01.035Z,79.07
2018-11-23T17:40:31.499Z,76.17
2018-11-23T17:43:00.015Z,64.70
2018-11-23T17:45:30.785Z,72.00
2018-11-23T17:47:59.470Z,86.50
2018-11-23T17:50:29.389Z,67.97
2018-11-23T17:52:58.340Z,71.40
2018-11-23T17:55:27.630Z,71.93
2018-11-23T17:57:56.636Z,72.80
2018-11-23T18:00:27.652Z,72.70
2018-11-23T18:02:56.807Z,59.00
2018-11-23T18:05:26.194Z,78.63
2018-11-23T18:07:54.954Z,79.97
2018-11-23T18:10:24.864Z,79.13
2018-11-23T18:12:53.958Z,78.47
2018-11-23T18:15:24.435Z,79.70
2018-11-23T18:17:53.987Z,86.67
2018-11-23T18:20:23.468Z,81.27
2018-11-23T18:22:52.962Z,70.17
2018-11-23T18:25:22.928Z,81.97
2018-11-23T18:27:55.587Z,61.77
2018-11-23T18:30:24.420Z,53.73
2018-11-23T18:32:53.571Z,76.93
2018-11-23T18:35:22.196Z,74.17
2018-11-23T18:37:51.189Z,84.00
2018-11-23T18:40:19.843Z,91.47
2018-11-23T18:42:48.650Z,75.70
2018-11-23T18:45:17.318Z,67.73
2018-11-23T18:47:46.013Z,79.60
2018-11-23T18:50:16.800Z,88.27
2018-11-23T18:52:45.510Z,52.93
2018-11-23T18:55:18.330Z,56.60
2018-11-23T18:57:44.636Z,72.33
2018-11-23T19:00:14.258Z,66.27
2018-11-23T19:02:43.731Z,79.70
2018-11-23T19:05:16.555Z,85.20
2018-11-23T19:07:51.692Z,71.17
2018-11-23T19:10:20.306Z,88.60
2018-11-23T19:12:48.976Z,72.27
2018-11-23T19:15:25.200Z,63.17
2018-11-23T19:17:48.097Z,82.07
2018-11-23T19:20:18.979Z,92.60
2018-11-23T19:22:49.057Z,72.43
2018-11-23T19:25:18.054Z,89.50
2018-11-23T19:27:46.910Z,72.47
2018-11-23T19:30:16.820Z,85.53
2018-11-23T19:32:45.763Z,90.53
2018-11-23T19:35:14.465Z,87.53
2018-11-23T19:37:43.224Z,91.37
2018-11-23T19:40:16.450Z,86.30
2018-11-23T19:42:45.779Z,74.83
2018-11-23T19:45:15.504Z,74.87
2018-11-23T19:47:44.129Z,90.03
2018-11-23T19:50:15.015Z,90.00
2018-11-23T19:52:44.279Z,95.93
2018-11-23T19:55:13.810Z,82.60
2018-11-23T19:57:42.741Z,96.00
2018-11-23T20:00:23.693Z,74.07
2018-11-23T20:02:53.446Z,63.43
2018-11-23T20:05:22.646Z,86.63
2018-11-23T20:07:53.958Z,76.80
2018-11-23T20:10:24.247Z,82.87
2018-11-23T20:12:54.490Z,98.40
2018-11-23T20:15:23.400Z,85.17
2018-11-23T20:17:52.140Z,74.50
2018-11-23T20:20:21.037Z,102.33
2018-11-23T20:22:50.671Z,89.90
2018-11-23T20:25:20.526Z,96.10
2018-11-23T20:27:50.763Z,93.80
2018-11-23T20:30:20.034Z,87.53
2018-11-23T20:32:49.045Z,81.17
2018-11-23T20:35:20.178Z,79.50
2018-11-23T20:37:48.911Z,68.17
2018-11-23T20:40:19.555Z,103.10
2018-11-23T20:42:48.169Z,104.53
2018-11-23T20:45:16.775Z,107.37
2018-11-23T20:47:45.339Z,77.53
2018-11-23T20:50:14.978Z,82.83
2018-11-23T20:52:43.560Z,66.90
2018-11-23T20:55:15.260Z,93.63
2018-11-23T20:57:44.014Z,65.10
2018-11-23T21:00:15.448Z,74.73
2018-11-23T21:02:44.530Z,92.97
2018-11-23T21:05:14.143Z,88.60
2018-11-23T21:07:42.751Z,106.87
2018-11-23T21:10:20.057Z,111.57
2018-11-23T21:12:41.998Z,95.83
2018-11-23T21:15:18.058Z,115.67
2018-11-23T21:17:46.599Z,98.17
2018-11-23T21:20:15.162Z,98.37
2018-11-23T21:22:43.661Z,78.10
2018-11-23T21:25:12.242Z,136.47
2018-11-23T21:27:40.865Z,65.53
2018-11-23T21:30:12.947Z,117.40
2018-11-23T21:32:41.475Z,120.00
2018-11-23T21:35:10.758Z,105.07
2018-11-23T21:37:39.336Z,130.87
2018-11-23T21:40:14.178Z,124.05
2018-11-23T21:42:42.806Z,120.57
2018-11-23T21:45:17.199Z,77.07
2018-11-23T21:47:45.811Z,96.60
2018-11-23T21:50:16.365Z,115.97
2018-11-23T21:52:44.985Z,107.60
2018-11-23T21:55:15.009Z,148.70
2018-11-23T21:57:43.536Z,106.90
2018-11-23T22:00:13.258Z,117.73
2018-11-23T22:02:41.826Z,140.57
2018-11-23T22:05:10.626Z,146.90
2018-11-23T22:07:39.258Z,101.77
2018-11-23T22:10:11.187Z,166.10
2018-11-23T22:12:39.694Z,112.97
2018-11-23T22:15:10.563Z,143.47
2018-11-23T22:17:39.222Z,172.53
2018-11-23T22:20:12.902Z,144.82
2018-11-23T22:22:41.458Z,185.27
2018-11-23T22:25:11.371Z,107.43
2018-11-23T22:27:39.973Z,172.10
2018-11-23T22:30:17.938Z,203.13
2018-11-23T22:32:46.450Z,211.67
2018-11-23T22:35:15.228Z,243.23
2018-11-23T22:37:43.739Z,163.43
2018-11-23T22:40:16.709Z,168.33
2018-11-23T22:42:46.438Z,176.53
2018-11-23T22:45:15.924Z,166.60
2018-11-23T22:47:44.578Z,185.93
2018-11-23T22:50:17.978Z,155.40
2018-11-23T22:52:47.727Z,187.43
2018-11-23T22:55:16.122Z,204.27
2018-11-23T22:57:44.655Z,201.90
2018-11-23T23:00:23.358Z,127.47
2018-11-23T23:02:52.278Z,135.60
2018-11-23T23:05:24.911Z,207.37
2018-11-23T23:07:53.552Z,114.47
2018-11-23T23:10:23.059Z,190.17
2018-11-23T23:12:51.549Z,198.80
2018-11-23T23:15:20.070Z,142.20
2018-11-23T23:17:48.605Z,188.90
2018-11-23T23:20:19.240Z,201.70
2018-11-23T23:22:47.784Z,185.80
2018-11-23T23:25:16.355Z,137.70
2018-11-23T23:27:44.896Z,188.93
2018-11-23T23:30:16.599Z,178.90
2018-11-23T23:32:45.837Z,162.83
2018-11-23T23:35:15.337Z,210.13
2018-11-23T23:37:43.881Z,224.90
2018-11-23T23:40:14.455Z,205.10
2018-11-23T23:42:43.024Z,177.77
2018-11-23T23:45:13.382Z,148.73
2018-11-23T23:47:41.987Z,218.47
2018-11-23T23:50:11.936Z,150.13
2018-11-23T23:52:40.532Z,154.30
2018-11-23T23:55:09.835Z,199.70
2018-11-23T23:57:38.898Z,166.07
